Time;durP1;ratioP1;P1;durP2;ratioP2;P2;SDS_P1;SDS_P2;PMS_P1;PMS_P2;Temp;Humidity;BMP_temperature;BMP_pressure;BME280_temperature;BME280_humidity;BME280_pressure;Samples;Min_cycle;Max_cycle;Signal;HPM_P1;HPM_P2
2023/04/30 00:00:45;;;;;;;8.00;3.00;;;;;;;5.46;89.79;101548.52;108222;1253;59477;-66
2023/04/30 00:03:12;;;;;;;9.40;3.20;;;;;;;5.44;90.05;101550.61;107677;1254;73457;-70
2023/04/30 00:05:39;;;;;;;11.20;3.30;;;;;;;5.42;90.13;101549.73;107756;1253;71009;-68
2023/04/30 00:08:06;;;;;;;10.60;3.40;;;;;;;5.41;90.21;101548.95;107994;1253;70559;-70
2023/04/30 00:10:33;;;;;;;12.40;3.20;;;;;;;5.38;90.46;101551.11;107864;1253;60975;-69
2023/04/30 00:12:59;;;;;;;10.80;3.00;;;;;;;5.35;90.56;101550.11;107852;1253;60280;-69
2023/04/30 00:15:26;;;;;;;8.60;3.30;;;;;;;5.33;90.60;101552.36;107720;1253;73882;-69
2023/04/30 00:17:52;;;;;;;8.90;3.30;;;;;;;5.30;90.70;101551.66;107845;1252;69690;-69
2023/04/30 00:20:19;;;;;;;8.90;3.40;;;;;;;5.29;90.88;101555.10;107997;1253;60434;-69
2023/04/30 00:22:45;;;;;;;7.20;3.20;;;;;;;5.27;90.87;101551.02;107767;1254;61225;-69
2023/04/30 00:25:12;;;;;;;7.70;3.40;;;;;;;5.26;90.80;101555.51;107837;1253;58607;-69
2023/04/30 00:27:39;;;;;;;9.00;3.50;;;;;;;5.25;90.88;101557.55;107742;1254;73599;-69
2023/04/30 00:30:06;;;;;;;8.10;3.50;;;;;;;5.23;90.98;101560.17;107802;1253;71457;-68
2023/04/30 00:32:33;;;;;;;8.30;3.40;;;;;;;5.20;90.96;101562.31;107659;1252;71244;-69
2023/04/30 00:35:00;;;;;;;8.90;3.50;;;;;;;5.17;90.91;101562.34;108168;1253;264210;-68
2023/04/30 00:37:27;;;;;;;10.10;3.60;;;;;;;5.14;90.99;101566.95;107889;1252;60657;-68
2023/04/30 00:39:53;;;;;;;7.60;3.70;;;;;;;5.09;91.22;101564.53;107815;1254;73596;-69
2023/04/30 00:42:20;;;;;;;9.50;4.00;;;;;;;5.07;91.37;101565.23;107814;1252;69913;-71
2023/04/30 00:44:47;;;;;;;10.60;3.80;;;;;;;5.03;91.77;101569.73;107978;1252;72453;-69
2023/04/30 00:47:14;;;;;;;9.10;3.70;;;;;;;5.02;91.88;101572.08;107967;1253;61086;-69
2023/04/30 00:49:41;;;;;;;8.00;3.50;;;;;;;5.00;92.01;101574.39;107644;1253;60432;-68
2023/04/30 00:52:08;;;;;;;9.00;4.20;;;;;;;4.97;92.22;101574.60;107811;1253;72621;-69
2023/04/30 00:54:35;;;;;;;9.30;3.60;;;;;;;4.95;92.26;101578.60;108285;1253;70970;-68
2023/04/30 00:57:04;;;;;;;12.30;3.80;;;;;;;4.91;92.42;101577.48;107797;1252;72576;-68
2023/04/30 00:59:30;;;;;;;11.40;4.10;;;;;;;4.90;92.25;101583.37;107963;1254;61081;-70
2023/04/30 01:01:57;;;;;;;8.90;3.70;;;;;;;4.88;92.47;101586.47;107690;1253;59283;-67
2023/04/30 01:04:25;;;;;;;9.10;3.80;;;;;;;4.87;92.47;101582.90;107654;1253;72862;-69
2023/04/30 01:06:51;;;;;;;10.80;4.20;;;;;;;4.84;92.55;101582.71;108034;1253;71025;-68
2023/04/30 01:09:18;;;;;;;8.90;4.00;;;;;;;4.83;92.57;101583.34;108128;1252;71470;-70
2023/04/30 01:11:54;;;;;;;10.50;4.50;;;;;;;4.81;92.56;101584.70;107972;1253;61439;-71
2023/04/30 01:14:29;;;;;;;9.10;4.00;;;;;;;4.79;92.72;101587.52;107620;1254;60470;-69
2023/04/30 01:17:05;;;;;;;11.70;3.70;;;;;;;4.77;92.61;101586.96;107984;1253;73686;-69
2023/04/30 01:19:41;;;;;;;11.10;4.20;;;;;;;4.74;92.28;101589.84;107687;1253;71403;-69
2023/04/30 01:22:26;;;;;;;8.70;3.70;;;;;;;4.70;92.43;101590.48;107656;1253;74111;-69
2023/04/30 01:25:23;;;;;;;7.60;3.50;;;;;;;4.66;92.55;101590.04;107687;1253;60008;-68
2023/04/30 01:28:00;;;;;;;9.80;4.00;;;;;;;4.63;92.65;101594.11;108509;1253;60751;-69
2023/04/30 01:30:29;;;;;;;10.00;3.90;;;;;;;4.60;92.64;101593.69;107791;1253;74073;-69
2023/04/30 01:32:56;;;;;;;11.80;4.10;;;;;;;4.57;92.77;101599.01;107843;1258;70919;-70
2023/04/30 01:35:55;;;;;;;13.00;4.30;;;;;;;4.53;93.33;101599.78;107776;1253;71533;-69
2023/04/30 01:38:49;;;;;;;7.60;4.10;;;;;;;4.49;93.33;101598.31;107664;1253;60463;-69
2023/04/30 01:41:34;;;;;;;9.40;3.50;;;;;;;4.44;93.91;101600.56;108112;1253;60911;-67
2023/04/30 01:44:34;;;;;;;10.70;3.80;;;;;;;4.41;93.86;101603.27;107818;1253;72322;-69
2023/04/30 01:47:11;;;;;;;9.70;3.50;;;;;;;4.39;93.80;101600.79;107741;1253;69781;-70
2023/04/30 01:50:14;;;;;;;9.00;3.90;;;;;;;4.38;93.90;101601.77;107728;1258;70574;-69
2023/04/30 01:52:50;;;;;;;9.30;3.80;;;;;;;4.35;93.86;101606.84;107897;1252;60448;-70
2023/04/30 01:55:26;;;;;;;8.60;3.70;;;;;;;4.33;94.12;101605.75;107944;1253;59094;-69
2023/04/30 01:57:58;;;;;;;10.00;4.20;;;;;;;4.31;94.35;101609.64;107807;1254;73615;-73
2023/04/30 02:00:27;;;;;;;9.10;3.70;;;;;;;4.28;94.45;101609.45;107827;1253;71560;-68
2023/04/30 02:02:54;;;;;;;10.10;4.80;;;;;;;4.26;94.39;101612.42;108250;1253;71860;-69
2023/04/30 02:05:21;;;;;;;10.40;4.10;;;;;;;4.23;94.42;101612.84;107992;1254;60563;-69
2023/04/30 02:07:50;;;;;;;8.80;3.80;;;;;;;4.21;94.25;101614.02;107964;1254;60043;-69
2023/04/30 02:10:20;;;;;;;11.90;4.20;;;;;;;4.19;93.98;101613.48;107830;1254;73900;-67
2023/04/30 02:12:46;;;;;;;10.00;3.90;;;;;;;4.17;94.19;101614.30;107908;1254;70041;-68
2023/04/30 02:15:14;;;;;;;11.00;4.40;;;;;;;4.15;94.08;101618.53;107924;1253;71236;-68
2023/04/30 02:17:41;;;;;;;9.50;4.10;;;;;;;4.12;94.13;101621.35;107898;1252;61339;-69
2023/04/30 02:20:08;;;;;;;9.20;3.70;;;;;;;4.08;94.04;101620.73;107965;1253;60361;-67
2023/04/30 02:22:35;;;;;;;8.20;4.20;;;;;;;4.04;93.90;101618.52;107662;1253;73845;-69
2023/04/30 02:25:03;;;;;;;7.20;3.90;;;;;;;4.01;93.99;101617.52;108062;1253;71280;-68
2023/04/30 02:27:31;;;;;;;8.30;3.80;;;;;;;3.98;93.85;101616.36;107881;1254;71736;-69
2023/04/30 02:29:59;;;;;;;11.50;4.10;;;;;;;3.93;93.88;101613.39;107481;1253;61415;-69
2023/04/30 02:32:26;;;;;;;7.70;3.80;;;;;;;3.90;94.11;101616.05;107628;1257;60453;-70
2023/04/30 02:34:53;;;;;;;10.60;4.10;;;;;;;3.87;94.09;101618.39;107940;1254;73938;-68
2023/04/30 02:37:20;;;;;;;7.80;4.10;;;;;;;3.83;94.35;101618.61;107794;1253;69717;-69
2023/04/30 02:39:46;;;;;;;9.70;4.30;;;;;;;3.82;94.39;101618.88;108221;1253;72401;-68
2023/04/30 02:42:13;;;;;;;9.90;4.20;;;;;;;3.79;94.20;101619.96;107799;1254;60850;-68
2023/04/30 02:44:40;;;;;;;13.20;4.50;;;;;;;3.77;94.20;101621.38;107358;1254;60999;-70
2023/04/30 02:47:07;;;;;;;8.40;4.00;;;;;;;3.73;94.34;101620.21;107962;1253;74353;-69
2023/04/30 02:49:34;;;;;;;8.00;3.90;;;;;;;3.72;94.41;101620.46;107977;1253;71234;-68
2023/04/30 02:52:01;;;;;;;10.70;4.20;;;;;;;3.71;94.46;101623.01;107667;1254;70780;-67
2023/04/30 02:54:28;;;;;;;9.50;4.10;;;;;;;3.70;94.51;101623.25;107706;1253;61077;-68
2023/04/30 02:56:55;;;;;;;9.70;4.20;;;;;;;3.68;94.37;101625.66;107858;1254;60385;-69
2023/04/30 02:59:22;;;;;;;11.20;4.10;;;;;;;3.65;94.51;101629.16;107926;1254;73593;-68
2023/04/30 03:01:48;;;;;;;8.60;4.40;;;;;;;3.62;94.17;101629.38;107956;1254;71678;-68
2023/04/30 03:04:15;;;;;;;10.00;4.90;;;;;;;3.60;94.13;101631.61;107572;1252;72763;-72
2023/04/30 03:06:42;;;;;;;10.20;4.30;;;;;;;3.57;94.64;101636.38;107629;1254;60466;-69
2023/04/30 03:09:08;;;;;;;11.30;4.30;;;;;;;3.55;94.63;101636.16;107906;1252;59894;-69
2023/04/30 03:11:36;;;;;;;10.50;4.60;;;;;;;3.53;94.43;101638.58;108102;1254;72365;-67
2023/04/30 03:14:06;;;;;;;8.10;4.00;;;;;;;3.51;94.33;101639.45;107935;1253;71021;-70
2023/04/30 03:16:33;;;;;;;9.30;4.20;;;;;;;3.47;94.40;101641.80;107789;1254;71531;-68
2023/04/30 03:19:00;;;;;;;7.40;4.10;;;;;;;3.45;94.49;101638.27;107792;1254;61225;-69
2023/04/30 03:21:26;;;;;;;12.10;4.40;;;;;;;3.43;94.59;101637.19;108006;1253;60348;-69
2023/04/30 03:23:53;;;;;;;8.50;4.20;;;;;;;3.41;94.77;101640.27;107721;1253;72580;-68
2023/04/30 03:26:20;;;;;;;8.30;4.20;;;;;;;3.38;95.00;101643.96;107846;1254;70992;-69
2023/04/30 03:28:48;;;;;;;11.90;4.30;;;;;;;3.36;94.73;101648.65;107817;1254;74358;-68
2023/04/30 03:31:15;;;;;;;11.60;5.10;;;;;;;3.34;95.11;101646.55;107971;1253;60550;-67
2023/04/30 03:33:41;;;;;;;11.30;4.80;;;;;;;3.32;95.22;101646.16;108024;1253;59349;-70
2023/04/30 03:36:08;;;;;;;10.30;4.90;;;;;;;3.31;95.45;101644.99;107728;1252;72722;-67
2023/04/30 03:38:35;;;;;;;11.20;4.50;;;;;;;3.30;95.63;101645.24;107704;1254;69957;-70
2023/04/30 03:41:02;;;;;;;11.70;4.40;;;;;;;3.29;95.52;101648.30;107902;1257;73615;-68
2023/04/30 03:43:29;;;;;;;8.20;4.20;;;;;;;3.26;95.64;101652.46;107946;1253;58927;-68
2023/04/30 03:45:56;;;;;;;8.80;4.50;;;;;;;3.24;95.44;101648.75;107900;1254;60306;-67
2023/04/30 03:48:23;;;;;;;10.30;4.40;;;;;;;3.22;95.37;101649.08;107827;1253;72281;-70
2023/04/30 03:50:50;;;;;;;10.30;4.20;;;;;;;3.20;95.16;101650.63;107882;1254;69671;-69
2023/04/30 03:53:17;;;;;;;9.30;4.50;;;;;;;3.18;94.94;101655.86;107808;1254;73125;-69
2023/04/30 03:55:44;;;;;;;7.40;3.70;;;;;;;3.14;94.97;101657.63;108041;1254;59652;-68
2023/04/30 03:58:10;;;;;;;9.60;3.80;;;;;;;3.12;95.10;101658.16;107738;1253;60312;-69
2023/04/30 04:00:40;;;;;;;8.70;4.60;;;;;;;3.10;95.13;101662.32;107559;1254;73984;-69
2023/04/30 04:03:07;;;;;;;12.10;4.20;;;;;;;3.07;94.95;101664.92;107901;1256;70203;-67
2023/04/30 04:05:33;;;;;;;10.90;4.40;;;;;;;3.05;95.18;101668.40;108017;1254;70438;-69
2023/04/30 04:08:00;;;;;;;9.60;4.70;;;;;;;3.04;95.05;101675.27;107915;1254;61185;-66
2023/04/30 04:10:27;;;;;;;11.80;5.30;;;;;;;3.04;95.15;101679.84;107799;1255;60141;-69
2023/04/30 04:12:54;;;;;;;9.60;4.60;;;;;;;3.04;95.54;101680.00;107731;1254;74539;-68
2023/04/30 04:15:21;;;;;;;10.10;5.10;;;;;;;3.05;95.74;101680.11;107937;1254;59171;-68
2023/04/30 04:17:47;;;;;;;12.00;5.60;;;;;;;3.05;95.47;101682.91;107935;1254;71522;-69
2023/04/30 04:20:14;;;;;;;9.70;5.10;;;;;;;3.06;95.52;101685.14;107857;1256;61236;-69
2023/04/30 04:22:41;;;;;;;8.60;5.30;;;;;;;3.08;95.55;101687.46;107669;1253;60347;-69
2023/04/30 04:25:08;;;;;;;12.50;5.60;;;;;;;3.10;95.65;101692.52;107732;1253;73594;-69
2023/04/30 04:27:35;;;;;;;9.90;5.00;;;;;;;3.13;95.61;101692.52;107963;1252;70202;-67
2023/04/30 04:30:03;;;;;;;11.30;5.40;;;;;;;3.18;95.95;101695.88;107981;1252;71568;-69
2023/04/30 04:32:31;;;;;;;12.50;5.00;;;;;;;3.22;95.99;101694.52;107588;1253;61003;-67
2023/04/30 04:34:58;;;;;;;10.10;5.00;;;;;;;3.26;95.65;101693.23;107781;1254;60492;-67
2023/04/30 04:37:25;;;;;;;10.90;5.00;;;;;;;3.27;95.42;101699.08;108108;1254;73953;-69
2023/04/30 04:39:52;;;;;;;10.40;4.80;;;;;;;3.28;95.12;101700.98;108041;1254;68917;-67
2023/04/30 04:42:19;;;;;;;13.40;6.00;;;;;;;3.33;95.72;101702.02;107628;1253;72189;-67
2023/04/30 04:44:46;;;;;;;10.90;5.50;;;;;;;3.41;96.25;101703.95;107723;1254;60556;-68
2023/04/30 04:47:12;;;;;;;10.50;5.10;;;;;;;3.48;96.30;101698.58;108135;1254;59314;-67
2023/04/30 04:49:40;;;;;;;12.90;5.30;;;;;;;3.57;96.41;101700.56;107652;1254;73323;-68
2023/04/30 04:52:06;;;;;;;10.70;5.10;;;;;;;3.67;96.36;101707.60;107826;1254;69382;-67
2023/04/30 04:54:33;;;;;;;11.40;5.20;;;;;;;3.76;96.32;101707.52;107807;1254;71130;-69
2023/04/30 04:57:01;;;;;;;12.20;5.50;;;;;;;3.85;96.27;101709.83;107671;1256;60469;-67
2023/04/30 04:59:28;;;;;;;10.20;5.10;;;;;;;3.95;96.25;101711.08;108087;1254;61143;-68
2023/04/30 05:01:55;;;;;;;10.10;5.60;;;;;;;4.05;96.17;101716.52;108165;1254;73817;-68
2023/04/30 05:04:22;;;;;;;10.80;5.10;;;;;;;4.14;96.02;101720.48;107882;1253;71090;-69
2023/04/30 05:06:49;;;;;;;11.90;5.20;;;;;;;4.22;95.93;101719.69;107448;1253;72499;-67
2023/04/30 05:09:16;;;;;;;11.00;4.90;;;;;;;4.33;96.03;101719.83;107716;1257;59134;-67
2023/04/30 05:11:43;;;;;;;10.20;5.10;;;;;;;4.43;95.92;101719.75;108083;1252;60530;-69
2023/04/30 05:14:10;;;;;;;13.50;5.50;;;;;;;4.55;95.98;101716.30;107876;1256;72354;-68
2023/04/30 05:16:37;;;;;;;13.50;5.40;;;;;;;4.66;95.49;101721.09;107741;1257;69632;-69
2023/04/30 05:19:04;;;;;;;12.10;5.50;;;;;;;4.76;95.41;101726.14;108257;1255;72861;-68
2023/04/30 05:21:31;;;;;;;8.20;4.70;;;;;;;4.87;94.97;101726.11;107881;1257;59664;-68
2023/04/30 05:23:58;;;;;;;8.40;4.70;;;;;;;4.95;94.73;101726.35;107999;1253;60473;-68
2023/04/30 05:26:25;;;;;;;10.90;5.20;;;;;;;5.04;94.36;101726.95;107657;1258;72788;-68
2023/04/30 05:28:51;;;;;;;12.10;4.90;;;;;;;5.11;94.19;101729.41;108003;1257;71886;-68
2023/04/30 05:31:18;;;;;;;9.40;5.30;;;;;;;5.18;93.87;101730.66;107971;1253;72516;-67
2023/04/30 05:33:46;;;;;;;11.60;5.50;;;;;;;5.27;93.83;101731.88;107609;1253;61589;-67
2023/04/30 05:36:13;;;;;;;10.20;4.60;;;;;;;5.39;93.79;101729.43;107813;1254;62270;-69
2023/04/30 05:38:40;;;;;;;11.70;5.40;;;;;;;5.51;93.40;101734.95;107944;1254;74724;-69
2023/04/30 05:41:10;;;;;;;14.50;4.90;;;;;;;5.64;93.08;101733.46;107847;1254;70055;-68
2023/04/30 05:43:37;;;;;;;12.70;4.10;;;;;;;5.78;92.61;101738.40;107816;1253;72426;-67
2023/04/30 05:46:04;;;;;;;10.20;3.90;;;;;;;5.92;92.41;101738.70;107673;1254;61302;-68
2023/04/30 05:48:31;;;;;;;12.20;4.50;;;;;;;6.09;92.10;101740.26;108028;1255;61458;-69
2023/04/30 05:50:57;;;;;;;10.40;4.10;;;;;;;6.25;91.70;101737.95;107695;1254;74395;-71
2023/04/30 05:53:24;;;;;;;10.30;3.70;;;;;;;6.40;90.76;101738.68;108074;1253;69847;-68
2023/04/30 05:55:51;;;;;;;8.60;4.10;;;;;;;6.46;88.44;101741.69;108109;1254;71128;-68
2023/04/30 05:58:18;;;;;;;11.40;3.30;;;;;;;6.56;88.63;101744.11;107760;1253;61165;-68
2023/04/30 06:00:48;;;;;;;11.80;3.80;;;;;;;6.71;88.45;101744.16;107659;1257;59508;-69
2023/04/30 06:03:15;;;;;;;10.00;3.40;;;;;;;6.86;87.76;101741.52;107814;1253;74992;-70
2023/04/30 06:05:43;;;;;;;8.00;2.90;;;;;;;7.00;87.21;101743.89;107935;1253;69060;-67
2023/04/30 06:08:10;;;;;;;7.10;2.80;;;;;;;7.16;86.06;101747.48;107938;1253;71797;-67
2023/04/30 06:10:37;;;;;;;7.20;3.00;;;;;;;7.29;85.71;101748.19;107792;1253;61359;-68
2023/04/30 06:13:05;;;;;;;9.60;2.80;;;;;;;7.43;84.88;101751.79;107690;1257;61193;-68
2023/04/30 06:15:32;;;;;;;8.00;2.90;;;;;;;7.56;84.05;101752.09;108047;1254;73579;-68
2023/04/30 06:17:58;;;;;;;11.70;3.10;;;;;;;7.69;83.43;101748.48;107922;1254;69959;-67
2023/04/30 06:20:26;;;;;;;9.30;3.00;;;;;;;7.83;82.98;101749.08;107886;1256;71521;-68
2023/04/30 06:22:52;;;;;;;9.80;3.10;;;;;;;7.95;82.36;101752.81;107774;1257;61612;-69
2023/04/30 06:25:19;;;;;;;10.50;3.00;;;;;;;8.08;81.86;101752.24;107512;1253;61272;-68
2023/04/30 06:27:46;;;;;;;7.50;2.90;;;;;;;8.17;80.56;101755.11;108044;1254;74851;-67
2023/04/30 06:30:13;;;;;;;8.00;2.90;;;;;;;8.23;78.08;101760.64;107674;1254;71411;-67
2023/04/30 06:32:40;;;;;;;7.90;3.10;;;;;;;8.31;78.47;101761.87;107788;1253;71431;-69
2023/04/30 06:35:07;;;;;;;6.10;2.40;;;;;;;8.36;76.99;101763.17;107785;1254;61167;-68
2023/04/30 06:37:36;;;;;;;8.20;2.50;;;;;;;8.35;74.85;101756.71;107930;1257;61983;-68
2023/04/30 06:40:04;;;;;;;9.10;2.60;;;;;;;8.38;74.93;101758.25;107913;1254;75696;-68
2023/04/30 06:42:34;;;;;;;7.60;2.30;;;;;;;8.47;74.74;101755.53;107869;1254;71145;-68
2023/04/30 06:45:01;;;;;;;10.00;2.30;;;;;;;8.57;73.61;101753.58;107587;1253;73556;-68
2023/04/30 06:47:36;;;;;;;8.70;2.70;;;;;;;8.68;73.34;101754.26;107642;1253;61195;-68
2023/04/30 06:50:03;;;;;;;8.50;2.60;;;;;;;8.75;71.75;101756.42;107825;1254;61263;-68
2023/04/30 06:52:30;;;;;;;7.70;2.60;;;;;;;8.78;71.33;101755.65;108253;1254;73650;-64
2023/04/30 06:54:56;;;;;;;9.10;2.80;;;;;;;8.85;71.79;101755.57;107785;1254;70381;-72
2023/04/30 06:57:24;;;;;;;8.10;2.60;;;;;;;8.91;70.24;101753.42;107538;1253;73092;-68
2023/04/30 06:59:51;;;;;;;8.20;2.60;;;;;;;8.94;70.47;101751.04;107867;1253;59606;-69
2023/04/30 07:02:18;;;;;;;9.20;2.60;;;;;;;9.01;69.73;101754.66;107861;1253;60601;-69
2023/04/30 07:04:48;;;;;;;9.30;2.70;;;;;;;9.05;68.90;101752.93;107681;1257;74932;-68
2023/04/30 07:07:15;;;;;;;6.70;2.20;;;;;;;9.14;68.65;101755.59;107822;1254;72508;-68
2023/04/30 07:09:41;;;;;;;7.20;2.40;;;;;;;9.17;66.75;101757.57;107841;1254;71449;-68
2023/04/30 07:12:09;;;;;;;8.70;2.40;;;;;;;9.25;66.38;101756.50;107847;1255;61266;-69
2023/04/30 07:14:36;;;;;;;6.00;2.20;;;;;;;9.33;66.83;101760.70;107848;1254;61253;-68
2023/04/30 07:17:03;;;;;;;7.30;2.40;;;;;;;9.40;66.25;101766.79;107778;1254;59404;-69
2023/04/30 07:19:31;;;;;;;10.40;3.00;;;;;;;9.49;66.28;101767.77;107689;1258;71230;-68
2023/04/30 07:21:57;;;;;;;8.20;2.90;;;;;;;9.64;66.87;101768.86;107655;1253;72042;-68
2023/04/30 07:24:24;;;;;;;10.30;3.10;;;;;;;9.80;66.10;101771.04;107764;1254;61231;-68
2023/04/30 07:26:51;;;;;;;7.10;2.80;;;;;;;9.91;65.32;101777.12;107860;1254;61804;-68
2023/04/30 07:29:18;;;;;;;6.10;2.20;;;;;;;9.98;64.82;101780.00;107879;1254;73533;-67
2023/04/30 07:31:44;;;;;;;7.50;2.10;;;;;;;9.95;63.31;101776.05;107834;1255;70067;-68
2023/04/30 07:34:12;;;;;;;6.70;2.30;;;;;;;10.00;63.98;101782.42;107808;1254;72726;-68
2023/04/30 07:36:38;;;;;;;8.00;2.20;;;;;;;10.10;63.60;101783.30;107906;1254;61276;-68
2023/04/30 07:39:05;;;;;;;7.30;1.90;;;;;;;10.24;63.02;101782.88;107657;1253;60059;-68
2023/04/30 07:41:31;;;;;;;7.40;2.20;;;;;;;10.45;63.07;101779.48;107864;1254;61336;-67
2023/04/30 07:43:58;;;;;;;7.50;2.30;;;;;;;10.60;60.46;101777.10;107921;1254;59026;-68
2023/04/30 07:46:25;;;;;;;5.10;2.00;;;;;;;10.50;58.98;101775.96;107694;1254;70488;-67
2023/04/30 07:48:51;;;;;;;6.10;2.20;;;;;;;10.51;59.80;101781.21;107867;1254;61954;-68
2023/04/30 07:51:18;;;;;;;8.80;2.20;;;;;;;10.49;59.88;101782.05;107872;1257;59028;-68
2023/04/30 07:53:44;;;;;;;7.60;2.30;;;;;;;10.47;59.06;101778.67;107948;1253;61161;-69
2023/04/30 07:56:11;;;;;;;7.90;2.70;;;;;;;10.36;58.91;101776.55;107915;1253;61238;-69
2023/04/30 07:58:37;;;;;;;6.00;2.10;;;;;;;10.26;59.46;101780.88;107790;1254;60667;-68
2023/04/30 08:01:04;;;;;;;6.90;2.10;;;;;;;10.19;59.98;101783.46;107967;1253;61350;-68
2023/04/30 08:03:30;;;;;;;7.00;2.30;;;;;;;10.16;60.32;101782.30;107909;1254;59455;-68
2023/04/30 08:05:57;;;;;;;6.90;2.40;;;;;;;10.15;60.47;101779.91;108031;1253;73312;-69
2023/04/30 08:08:24;;;;;;;8.60;2.50;;;;;;;10.26;60.60;101779.98;107818;1254;71487;-68
2023/04/30 08:10:50;;;;;;;10.00;2.80;;;;;;;10.46;59.73;101779.19;107845;1254;71143;-69
2023/04/30 08:13:17;;;;;;;6.70;2.20;;;;;;;10.62;58.62;101776.92;107790;1254;61359;-69
2023/04/30 08:15:44;;;;;;;7.00;2.50;;;;;;;10.77;58.45;101780.91;107852;1254;59226;-67
2023/04/30 08:18:10;;;;;;;9.70;2.40;;;;;;;10.94;58.69;101778.38;108053;1254;72537;-69
2023/04/30 08:20:37;;;;;;;6.50;2.30;;;;;;;11.10;57.98;101774.73;107712;1254;70098;-67
2023/04/30 08:23:04;;;;;;;7.20;2.20;;;;;;;11.22;56.86;101772.84;107847;1254;72767;-68
2023/04/30 08:25:31;;;;;;;7.70;2.40;;;;;;;11.20;54.79;101776.19;107935;1254;61193;-67
2023/04/30 08:27:57;;;;;;;9.80;2.70;;;;;;;11.17;55.38;101778.75;107737;1254;61241;-67
2023/04/30 08:30:24;;;;;;;11.20;2.10;;;;;;;11.23;56.19;101773.29;107788;1253;59195;-68
2023/04/30 08:32:51;;;;;;;6.40;2.40;;;;;;;11.18;54.13;101771.06;107856;1254;69713;-68
2023/04/30 08:35:17;;;;;;;8.40;2.30;;;;;;;11.09;54.60;101775.84;107527;1254;71836;-68
2023/04/30 08:37:44;;;;;;;6.60;2.30;;;;;;;11.16;55.96;101775.88;108286;1253;59161;-68
2023/04/30 08:40:11;;;;;;;7.30;2.30;;;;;;;11.31;56.27;101771.89;108134;1253;59736;-68
2023/04/30 08:42:45;;;;;;;7.50;2.10;;;;;;;11.45;55.70;101769.82;107703;1254;73717;-70
2023/04/30 08:45:13;;;;;;;7.50;2.10;;;;;;;11.66;55.91;101766.48;107856;1254;69390;-68
2023/04/30 08:47:40;;;;;;;7.10;2.50;;;;;;;11.83;53.74;101766.83;107750;1257;71468;-68
2023/04/30 08:50:07;;;;;;;7.80;2.20;;;;;;;11.99;53.79;101764.89;107886;1253;61168;-68
2023/04/30 08:52:36;;;;;;;7.00;2.50;;;;;;;12.11;53.41;101761.39;107695;1253;61279;-67
2023/04/30 08:55:06;;;;;;;7.50;2.50;;;;;;;12.15;51.97;101756.52;107968;1254;74399;-67
2023/04/30 08:57:33;;;;;;;4.00;1.80;;;;;;;12.14;51.50;101757.33;108391;1253;70886;-69
2023/04/30 08:59:59;;;;;;;5.20;2.00;;;;;;;12.08;51.56;101758.31;107835;1254;61349;-67
2023/04/30 09:02:26;;;;;;;6.00;2.10;;;;;;;12.09;51.51;101759.45;107699;1252;62033;-71
2023/04/30 09:04:53;;;;;;;6.90;2.40;;;;;;;12.16;50.12;101759.59;107939;1257;61148;-68
2023/04/30 09:07:22;;;;;;;6.10;2.20;;;;;;;12.25;50.96;101754.80;107622;1254;74783;-68
2023/04/30 09:09:51;;;;;;;6.20;2.00;;;;;;;12.36;50.44;101754.38;107806;1254;70086;-67
2023/04/30 09:12:18;;;;;;;7.20;2.20;;;;;;;12.38;49.20;101755.72;107561;1254;73177;-68
2023/04/30 09:15:01;;;;;;;6.80;2.00;;;;;;;12.38;48.61;101753.29;108325;1255;59555;-67
2023/04/30 09:17:27;;;;;;;8.00;2.10;;;;;;;12.41;49.17;101754.89;108013;1253;59338;-68
2023/04/30 09:20:05;;;;;;;6.50;2.10;;;;;;;12.49;49.68;101754.46;107650;1254;75223;-68
2023/04/30 09:22:32;;;;;;;5.20;1.90;;;;;;;12.64;49.85;101755.61;107720;1254;71323;-69
2023/04/30 09:24:58;;;;;;;11.30;6.40;;;;;;;12.69;48.43;101757.31;107860;1254;61369;-66
2023/04/30 09:27:25;;;;;;;7.20;2.00;;;;;;;12.76;48.74;101754.06;108042;1256;61494;-66
2023/04/30 09:29:51;;;;;;;8.80;2.20;;;;;;;12.83;48.59;101751.85;107931;1253;61782;-67
2023/04/30 09:32:18;;;;;;;7.30;2.30;;;;;;;12.90;48.74;101753.63;107600;1253;74855;-69
2023/04/30 09:34:44;;;;;;;5.30;1.90;;;;;;;13.01;48.48;101758.30;107709;1256;69888;-66
2023/04/30 09:37:11;;;;;;;4.40;1.80;;;;;;;13.06;48.43;101753.52;107655;1254;61257;-66
2023/04/30 09:39:49;;;;;;;5.60;2.20;;;;;;;13.08;48.15;101756.08;108124;1254;61250;-66
2023/04/30 09:42:18;;;;;;;6.40;2.00;;;;;;;13.15;47.52;101749.73;107663;1253;61173;-68
2023/04/30 09:44:45;;;;;;;4.80;1.50;;;;;;;13.18;47.24;101745.69;107715;1254;73274;-68
2023/04/30 09:47:16;;;;;;;6.10;2.00;;;;;;;13.11;46.68;101742.13;107922;1253;70368;-66
2023/04/30 09:49:47;;;;;;;6.10;2.00;;;;;;;13.12;46.88;101738.48;107653;1254;73090;-67
2023/04/30 09:52:14;;;;;;;7.40;2.00;;;;;;;13.02;46.09;101732.20;107765;1253;61346;-66
2023/04/30 09:54:43;;;;;;;7.60;2.00;;;;;;;13.05;46.74;101729.43;107819;1253;61544;-67
2023/04/30 09:57:12;;;;;;;6.70;2.10;;;;;;;13.19;47.14;101730.11;107922;1253;74384;-66
2023/04/30 09:59:44;;;;;;;7.10;2.10;;;;;;;13.34;46.99;101727.89;107979;1253;71217;-67
2023/04/30 10:02:16;;;;;;;5.20;1.70;;;;;;;13.49;46.84;101730.39;107638;1253;70847;-66
2023/04/30 10:04:45;;;;;;;5.30;1.70;;;;;;;13.59;46.99;101729.97;107893;1254;62423;-66
2023/04/30 10:07:15;;;;;;;6.50;1.70;;;;;;;13.62;45.94;101725.73;107845;1254;61352;-67
2023/04/30 10:10:03;;;;;;;7.20;2.20;;;;;;;13.74;47.07;101723.92;107923;1253;73151;-68
2023/04/30 10:12:36;;;;;;;5.90;2.00;;;;;;;13.85;44.88;101721.37;108632;1254;71169;-66
2023/04/30 10:15:16;;;;;;;6.00;1.90;;;;;;;13.99;45.25;101717.52;107935;1253;71521;-67
2023/04/30 10:17:49;;;;;;;6.20;1.70;;;;;;;14.16;45.31;101720.59;107795;1253;61256;-67
2023/04/30 10:20:17;;;;;;;5.60;2.00;;;;;;;14.23;43.88;101719.77;108043;1253;61288;-67
2023/04/30 10:22:46;;;;;;;4.60;2.00;;;;;;;14.27;44.47;101715.03;107911;1252;75189;-67
2023/04/30 10:25:15;;;;;;;6.70;2.00;;;;;;;14.34;44.10;101711.98;107563;1253;70025;-75
2023/04/30 10:27:42;;;;;;;5.50;2.00;;;;;;;14.50;44.66;101717.30;107813;1253;71815;-73
2023/04/30 10:30:10;;;;;;;5.90;1.90;;;;;;;14.68;44.52;101715.27;107944;1253;61125;-72
2023/04/30 10:32:47;;;;;;;4.60;1.90;;;;;;;14.79;43.02;101717.90;108176;1254;60367;-72
2023/04/30 10:35:27;;;;;;;6.50;2.10;;;;;;;14.85;43.08;101719.34;107679;1253;73257;-72
2023/04/30 10:38:11;;;;;;;5.10;2.00;;;;;;;14.87;41.65;101714.14;108055;1253;71323;-72
2023/04/30 10:40:38;;;;;;;5.40;1.70;;;;;;;14.94;42.18;101708.55;107665;1254;71670;-72
2023/04/30 10:43:05;;;;;;;5.30;2.00;;;;;;;14.98;41.17;101703.65;107867;1253;59207;-73
2023/04/30 10:45:36;;;;;;;5.60;1.90;;;;;;;14.98;41.45;101704.81;107802;1253;61220;-74
2023/04/30 10:48:05;;;;;;;6.60;1.90;;;;;;;14.92;40.25;101698.23;107931;1253;73567;-73
2023/04/30 10:50:32;;;;;;;5.10;2.10;;;;;;;14.83;40.72;101688.16;107820;1253;70055;-73
2023/04/30 10:53:03;;;;;;;4.40;2.00;;;;;;;14.83;40.95;101688.92;107667;1254;72482;-74
2023/04/30 10:55:30;;;;;;;6.50;1.90;;;;;;;14.88;42.29;101685.73;108002;1256;60597;-73
2023/04/30 10:57:57;;;;;;;6.30;2.20;;;;;;;15.06;42.10;101687.36;107614;1252;61877;-73
2023/04/30 11:00:28;;;;;;;6.10;1.70;;;;;;;15.19;41.39;101681.55;107634;1253;73145;-73
2023/04/30 11:02:57;;;;;;;5.60;2.30;;;;;;;15.33;40.87;101678.14;108048;1253;70944;-72
2023/04/30 11:05:36;;;;;;;6.90;1.80;;;;;;;15.34;39.90;101673.15;108122;1253;72693;-73
2023/04/30 11:08:03;;;;;;;7.00;2.20;;;;;;;15.35;41.14;101670.03;107755;1252;62488;-74
2023/04/30 11:10:34;;;;;;;3.60;1.50;;;;;;;15.44;41.35;101666.09;107815;1253;61148;-72
2023/04/30 11:13:05;;;;;;;4.30;1.70;;;;;;;15.58;41.17;101667.33;107924;1253;74605;-74
2023/04/30 11:15:40;;;;;;;5.70;2.00;;;;;;;15.65;39.79;101665.73;107784;1253;69353;-73
2023/04/30 11:18:08;;;;;;;6.70;2.00;;;;;;;15.58;39.26;101666.75;107899;1253;71961;-72
2023/04/30 11:20:40;;;;;;;5.20;1.80;;;;;;;15.56;38.64;101664.37;107874;1252;61154;-73
2023/04/30 11:23:13;;;;;;;3.90;2.00;;;;;;;15.54;37.88;101662.12;108310;1253;61346;-73
2023/04/30 11:25:56;;;;;;;5.10;1.70;;;;;;;15.48;37.08;101659.14;107936;1253;72265;-75